Prospect, Connecticut
Current Conditions -  °F | °C
As of 5:40 AM on Tuesday 27 Jan 2015 (Local Time) from KMMK Reporting Station
Haze Haze  
Wind Chill:   Ceiling: 1500
Heat Index: 17°   Visibility: 1mi
Dew Point: 12°   Wind: 13mph
Humidity: 81%   Direction: 360°N
Pressure: 29.6"   Gusts: 25mph
Location:  41.5°N, 72.98°W
Report Text: KMMK 271040Z AUTO 36011G22KT 1SM HZ VV015 M08/M11 A2960 RMK AO2 PK WND 01030/1012 T10831111 PWINO FZRANO TSNO $
Loading
Personal Weather Stations






























Interactive Weather Map New forecast layout! Learn more

10-Day Weather Forecast

Advertisements
Track Severe Weather on mobile